TitleAuthorLatest activityViews
ThreadJayNewWebNovember 23, 2017 2:27:52 PM 120 0 1
ThreadAnotherMeNovember 23, 2017 2:20:33 PM 2380 0 20
ThreadotterstreamNovember 23, 2017 12:30:34 PM 882 0 6
ThreadelizabethschenkNovember 23, 2017 12:21:02 PM 380 0 2
ThreadKevinB9November 23, 2017 12:12:11 PM 1320 0 7
Threadr_tistNovember 23, 2017 11:15:15 AM 250 0 1
Threadnigelh70638339November 23, 2017 8:41:38 AM 2080 0 17
ThreadSolar GaryNovember 23, 2017 7:24:53 AM 3890 0 12
Threadlindaf56925518November 23, 2017 2:45:37 AM 1500 0 2
ThreadNancy OSheaNovember 23, 2017 12:28:57 AM 2691 0 13
Threadiris_on_adobeNovember 22, 2017 10:56:23 PM 2870 0 11
Thread.Buko.November 22, 2017 10:06:02 PM 800 0 3
Threadstephenn12371843November 22, 2017 9:55:39 PM 850 0 4
ThreadTjStormNovember 22, 2017 9:34:21 PM 650 0 1
Threadbiankas72552495November 22, 2017 3:52:38 PM 460 0 1
Threadraaj1November 22, 2017 3:19:23 PM 450 0 2
Threadkellyd23394505November 22, 2017 3:06:50 PM 360 0 1
ThreadmichaelvergesNovember 22, 2017 10:17:59 AM 1220 0 7
Threadkineticcreative123November 22, 2017 9:41:45 AM 2150 0 11
Threadoskark29302609November 22, 2017 9:07:51 AM 1030 0 8